sensor_id;sensor_type;location;lat;lon;timestamp;P1;durP1;ratioP1;P2;durP2;ratioP2
75216;SDS011;63800;51.972;5.682;2023-02-28T00:00:00;4.05;;;2.90;;
75216;SDS011;63800;51.972;5.682;2023-02-28T00:02:33;5.38;;;3.30;;
75216;SDS011;63800;51.972;5.682;2023-02-28T00:04:58;5.28;;;3.00;;
75216;SDS011;63800;51.972;5.682;2023-02-28T00:07:26;4.07;;;3.20;;
75216;SDS011;63800;51.972;5.682;2023-02-28T00:09:52;4.53;;;3.08;;
75216;SDS011;63800;51.972;5.682;2023-02-28T00:12:18;4.53;;;3.15;;
75216;SDS011;63800;51.972;5.682;2023-02-28T00:14:44;6.63;;;3.45;;
75216;SDS011;63800;51.972;5.682;2023-02-28T00:17:09;4.80;;;3.20;;
75216;SDS011;63800;51.972;5.682;2023-02-28T00:19:34;4.82;;;3.47;;
75216;SDS011;63800;51.972;5.682;2023-02-28T00:22:00;4.38;;;2.90;;
75216;SDS011;63800;51.972;5.682;2023-02-28T00:24:25;6.20;;;3.35;;
75216;SDS011;63800;51.972;5.682;2023-02-28T00:26:51;3.67;;;3.13;;
75216;SDS011;63800;51.972;5.682;2023-02-28T00:29:16;4.50;;;3.30;;
75216;SDS011;63800;51.972;5.682;2023-02-28T00:31:42;4.68;;;3.17;;
75216;SDS011;63800;51.972;5.682;2023-02-28T00:34:07;6.15;;;3.60;;
75216;SDS011;63800;51.972;5.682;2023-02-28T00:36:33;4.25;;;3.35;;
75216;SDS011;63800;51.972;5.682;2023-02-28T00:38:58;4.40;;;3.30;;
75216;SDS011;63800;51.972;5.682;2023-02-28T00:41:23;4.60;;;3.50;;
75216;SDS011;63800;51.972;5.682;2023-02-28T00:43:49;6.38;;;3.85;;
75216;SDS011;63800;51.972;5.682;2023-02-28T00:46:14;4.95;;;3.58;;
75216;SDS011;63800;51.972;5.682;2023-02-28T00:48:40;4.60;;;3.17;;
75216;SDS011;63800;51.972;5.682;2023-02-28T00:51:05;6.47;;;3.53;;
75216;SDS011;63800;51.972;5.682;2023-02-28T00:53:31;4.43;;;3.45;;
75216;SDS011;63800;51.972;5.682;2023-02-28T00:56:00;8.10;;;3.47;;
75216;SDS011;63800;51.972;5.682;2023-02-28T00:58:26;7.68;;;3.80;;
75216;SDS011;63800;51.972;5.682;2023-02-28T01:00:51;6.35;;;3.35;;
75216;SDS011;63800;51.972;5.682;2023-02-28T01:03:19;6.57;;;3.80;;
75216;SDS011;63800;51.972;5.682;2023-02-28T01:05:45;4.10;;;3.10;;
75216;SDS011;63800;51.972;5.682;2023-02-28T01:08:11;5.55;;;3.55;;
75216;SDS011;63800;51.972;5.682;2023-02-28T01:10:38;7.15;;;3.58;;
75216;SDS011;63800;51.972;5.682;2023-02-28T01:13:04;5.35;;;3.30;;
75216;SDS011;63800;51.972;5.682;2023-02-28T01:15:30;5.65;;;3.10;;
75216;SDS011;63800;51.972;5.682;2023-02-28T01:17:56;4.88;;;3.10;;
75216;SDS011;63800;51.972;5.682;2023-02-28T01:20:22;5.70;;;3.40;;
75216;SDS011;63800;51.972;5.682;2023-02-28T01:22:48;5.43;;;3.60;;
75216;SDS011;63800;51.972;5.682;2023-02-28T01:25:13;5.80;;;3.33;;
75216;SDS011;63800;51.972;5.682;2023-02-28T01:27:42;5.65;;;3.85;;
75216;SDS011;63800;51.972;5.682;2023-02-28T01:30:08;5.43;;;3.20;;
75216;SDS011;63800;51.972;5.682;2023-02-28T01:32:34;4.70;;;3.38;;
75216;SDS011;63800;51.972;5.682;2023-02-28T01:35:00;4.63;;;3.75;;
75216;SDS011;63800;51.972;5.682;2023-02-28T01:37:26;4.80;;;3.85;;
75216;SDS011;63800;51.972;5.682;2023-02-28T01:39:51;6.18;;;3.67;;
75216;SDS011;63800;51.972;5.682;2023-02-28T01:42:17;6.70;;;3.72;;
75216;SDS011;63800;51.972;5.682;2023-02-28T01:47:41;5.68;;;3.60;;
75216;SDS011;63800;51.972;5.682;2023-02-28T01:50:13;4.80;;;3.80;;
75216;SDS011;63800;51.972;5.682;2023-02-28T01:55:07;6.43;;;4.20;;
75216;SDS011;63800;51.972;5.682;2023-02-28T01:57:38;9.25;;;4.13;;
75216;SDS011;63800;51.972;5.682;2023-02-28T02:00:17;5.60;;;3.35;;
75216;SDS011;63800;51.972;5.682;2023-02-28T02:02:46;4.50;;;3.58;;
75216;SDS011;63800;51.972;5.682;2023-02-28T02:05:22;5.28;;;4.10;;
75216;SDS011;63800;51.972;5.682;2023-02-28T02:07:50;6.80;;;4.00;;
75216;SDS011;63800;51.972;5.682;2023-02-28T02:10:24;6.25;;;3.92;;
75216;SDS011;63800;51.972;5.682;2023-02-28T02:18:24;4.93;;;3.83;;
75216;SDS011;63800;51.972;5.682;2023-02-28T02:24:03;7.40;;;4.07;;
75216;SDS011;63800;51.972;5.682;2023-02-28T02:29:52;6.50;;;4.22;;
75216;SDS011;63800;51.972;5.682;2023-02-28T02:40:10;7.43;;;4.30;;
75216;SDS011;63800;51.972;5.682;2023-02-28T02:42:51;6.30;;;3.72;;
75216;SDS011;63800;51.972;5.682;2023-02-28T02:45:26;7.35;;;3.75;;
75216;SDS011;63800;51.972;5.682;2023-02-28T02:48:00;5.55;;;3.75;;
75216;SDS011;63800;51.972;5.682;2023-02-28T02:50:44;6.93;;;4.55;;
75216;SDS011;63800;51.972;5.682;2023-02-28T02:53:13;5.95;;;4.03;;
75216;SDS011;63800;51.972;5.682;2023-02-28T02:55:43;5.10;;;3.95;;
75216;SDS011;63800;51.972;5.682;2023-02-28T02:58:13;7.88;;;4.05;;
75216;SDS011;63800;51.972;5.682;2023-02-28T03:00:52;5.50;;;3.70;;
75216;SDS011;63800;51.972;5.682;2023-02-28T03:03:20;5.20;;;3.63;;
75216;SDS011;63800;51.972;5.682;2023-02-28T03:05:53;7.72;;;4.07;;
75216;SDS011;63800;51.972;5.682;2023-02-28T03:08:20;6.07;;;3.80;;
75216;SDS011;63800;51.972;5.682;2023-02-28T03:10:46;6.32;;;3.67;;
75216;SDS011;63800;51.972;5.682;2023-02-28T03:19:24;6.68;;;3.90;;
75216;SDS011;63800;51.972;5.682;2023-02-28T03:28:00;6.75;;;4.25;;
75216;SDS011;63800;51.972;5.682;2023-02-28T03:30:33;8.63;;;4.30;;
75216;SDS011;63800;51.972;5.682;2023-02-28T03:35:42;7.55;;;4.10;;
75216;SDS011;63800;51.972;5.682;2023-02-28T03:38:19;5.55;;;4.10;;
75216;SDS011;63800;51.972;5.682;2023-02-28T03:41:05;5.07;;;3.67;;
75216;SDS011;63800;51.972;5.682;2023-02-28T03:43:35;5.07;;;3.70;;
75216;SDS011;63800;51.972;5.682;2023-02-28T03:46:08;5.28;;;3.50;;
75216;SDS011;63800;51.972;5.682;2023-02-28T03:48:39;5.05;;;3.50;;
75216;SDS011;63800;51.972;5.682;2023-02-28T03:51:05;6.07;;;4.38;;
75216;SDS011;63800;51.972;5.682;2023-02-28T03:53:37;5.60;;;3.80;;
75216;SDS011;63800;51.972;5.682;2023-02-28T03:56:12;6.13;;;3.20;;
75216;SDS011;63800;51.972;5.682;2023-02-28T04:01:47;4.80;;;3.70;;
75216;SDS011;63800;51.972;5.682;2023-02-28T04:04:14;7.90;;;3.40;;
75216;SDS011;63800;51.972;5.682;2023-02-28T04:06:41;6.20;;;3.10;;
75216;SDS011;63800;51.972;5.682;2023-02-28T04:09:08;4.05;;;2.67;;
75216;SDS011;63800;51.972;5.682;2023-02-28T04:11:39;4.18;;;2.83;;
75216;SDS011;63800;51.972;5.682;2023-02-28T04:14:07;4.10;;;2.55;;
75216;SDS011;63800;51.972;5.682;2023-02-28T04:16:34;3.65;;;2.90;;
75216;SDS011;63800;51.972;5.682;2023-02-28T04:19:02;3.08;;;2.78;;
75216;SDS011;63800;51.972;5.682;2023-02-28T04:21:30;2.80;;;2.55;;
75216;SDS011;63800;51.972;5.682;2023-02-28T04:24:00;4.35;;;2.78;;
75216;SDS011;63800;51.972;5.682;2023-02-28T04:26:33;2.70;;;2.30;;
75216;SDS011;63800;51.972;5.682;2023-02-28T04:28:59;4.32;;;2.30;;
75216;SDS011;63800;51.972;5.682;2023-02-28T04:31:26;2.83;;;2.25;;
75216;SDS011;63800;51.972;5.682;2023-02-28T04:33:51;3.90;;;2.33;;
75216;SDS011;63800;51.972;5.682;2023-02-28T04:36:17;2.60;;;2.38;;
75216;SDS011;63800;51.972;5.682;2023-02-28T04:38:44;4.63;;;2.35;;
75216;SDS011;63800;51.972;5.682;2023-02-28T04:41:10;4.13;;;2.67;;
75216;SDS011;63800;51.972;5.682;2023-02-28T04:43:35;2.55;;;2.20;;
75216;SDS011;63800;51.972;5.682;2023-02-28T04:46:02;3.45;;;2.17;;
75216;SDS011;63800;51.972;5.682;2023-02-28T04:48:30;2.75;;;2.20;;
75216;SDS011;63800;51.972;5.682;2023-02-28T04:51:01;3.13;;;2.17;;
75216;SDS011;63800;51.972;5.682;2023-02-28T04:53:31;3.97;;;2.30;;
75216;SDS011;63800;51.972;5.682;2023-02-28T04:55:56;3.05;;;2.55;;
75216;SDS011;63800;51.972;5.682;2023-02-28T04:58:23;3.95;;;2.42;;
75216;SDS011;63800;51.972;5.682;2023-02-28T05:00:49;3.70;;;2.30;;
75216;SDS011;63800;51.972;5.682;2023-02-28T05:03:15;2.50;;;2.28;;
75216;SDS011;63800;51.972;5.682;2023-02-28T05:05:41;2.30;;;2.10;;
75216;SDS011;63800;51.972;5.682;2023-02-28T05:08:06;4.28;;;2.63;;
75216;SDS011;63800;51.972;5.682;2023-02-28T05:10:31;3.13;;;2.40;;
75216;SDS011;63800;51.972;5.682;2023-02-28T05:12:57;4.47;;;2.17;;
75216;SDS011;63800;51.972;5.682;2023-02-28T05:15:23;3.83;;;2.45;;
75216;SDS011;63800;51.972;5.682;2023-02-28T05:17:49;3.10;;;2.22;;
75216;SDS011;63800;51.972;5.682;2023-02-28T05:20:14;2.20;;;2.00;;
75216;SDS011;63800;51.972;5.682;2023-02-28T05:22:40;3.35;;;1.90;;
75216;SDS011;63800;51.972;5.682;2023-02-28T05:25:06;2.90;;;1.80;;
75216;SDS011;63800;51.972;5.682;2023-02-28T05:27:36;3.20;;;2.20;;
75216;SDS011;63800;51.972;5.682;2023-02-28T05:30:02;2.83;;;1.98;;
75216;SDS011;63800;51.972;5.682;2023-02-28T05:32:29;5.13;;;2.28;;
75216;SDS011;63800;51.972;5.682;2023-02-28T05:34:54;2.28;;;2.08;;
75216;SDS011;63800;51.972;5.682;2023-02-28T05:37:20;2.60;;;2.08;;
75216;SDS011;63800;51.972;5.682;2023-02-28T05:39:45;2.63;;;2.33;;
75216;SDS011;63800;51.972;5.682;2023-02-28T05:42:11;3.88;;;2.38;;
75216;SDS011;63800;51.972;5.682;2023-02-28T05:44:36;4.30;;;2.40;;
75216;SDS011;63800;51.972;5.682;2023-02-28T05:47:02;2.83;;;2.30;;
75216;SDS011;63800;51.972;5.682;2023-02-28T05:49:27;2.13;;;1.98;;
75216;SDS011;63800;51.972;5.682;2023-02-28T05:51:53;3.33;;;2.15;;
75216;SDS011;63800;51.972;5.682;2023-02-28T05:54:18;2.38;;;1.95;;
75216;SDS011;63800;51.972;5.682;2023-02-28T05:56:44;2.97;;;1.88;;
75216;SDS011;63800;51.972;5.682;2023-02-28T05:59:11;2.38;;;2.00;;
75216;SDS011;63800;51.972;5.682;2023-02-28T06:01:41;2.13;;;2.00;;
75216;SDS011;63800;51.972;5.682;2023-02-28T06:04:13;2.40;;;2.20;;
75216;SDS011;63800;51.972;5.682;2023-02-28T06:06:42;2.83;;;2.10;;
75216;SDS011;63800;51.972;5.682;2023-02-28T06:09:11;3.28;;;2.28;;
75216;SDS011;63800;51.972;5.682;2023-02-28T06:11:37;3.70;;;2.17;;
75216;SDS011;63800;51.972;5.682;2023-02-28T06:14:03;3.40;;;2.00;;
75216;SDS011;63800;51.972;5.682;2023-02-28T06:16:29;3.38;;;3.08;;
75216;SDS011;63800;51.972;5.682;2023-02-28T06:18:59;2.55;;;2.35;;
75216;SDS011;63800;51.972;5.682;2023-02-28T06:21:26;5.15;;;2.10;;
75216;SDS011;63800;51.972;5.682;2023-02-28T06:23:52;3.67;;;2.38;;
75216;SDS011;63800;51.972;5.682;2023-02-28T06:26:18;4.88;;;2.28;;
75216;SDS011;63800;51.972;5.682;2023-02-28T06:28:44;2.40;;;2.15;;
75216;SDS011;63800;51.972;5.682;2023-02-28T06:31:10;5.10;;;2.50;;
75216;SDS011;63800;51.972;5.682;2023-02-28T06:33:38;3.80;;;2.30;;
75216;SDS011;63800;51.972;5.682;2023-02-28T06:36:04;2.85;;;2.30;;
75216;SDS011;63800;51.972;5.682;2023-02-28T06:38:30;2.88;;;2.35;;
75216;SDS011;63800;51.972;5.682;2023-02-28T06:40:56;2.85;;;2.47;;
75216;SDS011;63800;51.972;5.682;2023-02-28T06:43:23;4.97;;;2.20;;
75216;SDS011;63800;51.972;5.682;2023-02-28T06:45:50;2.78;;;2.17;;
75216;SDS011;63800;51.972;5.682;2023-02-28T06:48:15;3.17;;;2.28;;
75216;SDS011;63800;51.972;5.682;2023-02-28T06:50:41;2.95;;;2.17;;
75216;SDS011;63800;51.972;5.682;2023-02-28T06:53:06;2.20;;;2.00;;
75216;SDS011;63800;51.972;5.682;2023-02-28T06:55:32;3.35;;;2.22;;
75216;SDS011;63800;51.972;5.682;2023-02-28T06:57:57;3.72;;;2.22;;
75216;SDS011;63800;51.972;5.682;2023-02-28T07:00:23;3.15;;;2.30;;
75216;SDS011;63800;51.972;5.682;2023-02-28T07:02:49;3.00;;;2.22;;
75216;SDS011;63800;51.972;5.682;2023-02-28T07:05:15;3.80;;;2.70;;
75216;SDS011;63800;51.972;5.682;2023-02-28T07:07:41;4.63;;;2.60;;
75216;SDS011;63800;51.972;5.682;2023-02-28T07:10:10;5.10;;;2.47;;
75216;SDS011;63800;51.972;5.682;2023-02-28T07:12:36;3.65;;;2.72;;
75216;SDS011;63800;51.972;5.682;2023-02-28T07:15:02;3.00;;;2.63;;
75216;SDS011;63800;51.972;5.682;2023-02-28T07:17:28;3.35;;;2.40;;
75216;SDS011;63800;51.972;5.682;2023-02-28T07:19:53;2.80;;;2.60;;
75216;SDS011;63800;51.972;5.682;2023-02-28T07:22:19;2.92;;;2.60;;
75216;SDS011;63800;51.972;5.682;2023-02-28T07:24:44;3.92;;;2.78;;
75216;SDS011;63800;51.972;5.682;2023-02-28T07:27:10;3.47;;;2.72;;
75216;SDS011;63800;51.972;5.682;2023-02-28T07:29:35;3.47;;;2.78;;
75216;SDS011;63800;51.972;5.682;2023-02-28T07:32:02;4.55;;;2.78;;
75216;SDS011;63800;51.972;5.682;2023-02-28T07:34:28;3.90;;;2.38;;
75216;SDS011;63800;51.972;5.682;2023-02-28T07:36:53;6.13;;;2.83;;
75216;SDS011;63800;51.972;5.682;2023-02-28T07:39:20;3.50;;;2.92;;
75216;SDS011;63800;51.972;5.682;2023-02-28T07:41:46;3.53;;;2.75;;
75216;SDS011;63800;51.972;5.682;2023-02-28T07:46:57;3.38;;;2.92;;
75216;SDS011;63800;51.972;5.682;2023-02-28T07:49:22;2.90;;;2.70;;
75216;SDS011;63800;51.972;5.682;2023-02-28T07:51:48;3.90;;;2.65;;
75216;SDS011;63800;51.972;5.682;2023-02-28T07:54:13;4.85;;;2.85;;
75216;SDS011;63800;51.972;5.682;2023-02-28T07:56:39;3.40;;;2.78;;
75216;SDS011;63800;51.972;5.682;2023-02-28T07:59:04;3.30;;;2.80;;
75216;SDS011;63800;51.972;5.682;2023-02-28T08:01:30;3.40;;;2.55;;
75216;SDS011;63800;51.972;5.682;2023-02-28T08:03:55;3.38;;;2.90;;
75216;SDS011;63800;51.972;5.682;2023-02-28T08:06:22;4.60;;;2.63;;
75216;SDS011;63800;51.972;5.682;2023-02-28T08:08:49;2.30;;;2.08;;
75216;SDS011;63800;51.972;5.682;2023-02-28T08:11:15;3.53;;;2.50;;
75216;SDS011;63800;51.972;5.682;2023-02-28T08:13:42;3.00;;;2.03;;
75216;SDS011;63800;51.972;5.682;2023-02-28T08:16:09;3.53;;;2.20;;
75216;SDS011;63800;51.972;5.682;2023-02-28T08:18:35;3.33;;;2.03;;
75216;SDS011;63800;51.972;5.682;2023-02-28T08:21:05;2.22;;;2.03;;
75216;SDS011;63800;51.972;5.682;2023-02-28T08:23:32;2.22;;;2.00;;
75216;SDS011;63800;51.972;5.682;2023-02-28T08:25:58;2.17;;;1.88;;
75216;SDS011;63800;51.972;5.682;2023-02-28T08:28:24;1.98;;;1.75;;
75216;SDS011;63800;51.972;5.682;2023-02-28T08:30:49;3.45;;;2.03;;
75216;SDS011;63800;51.972;5.682;2023-02-28T08:33:15;2.92;;;1.88;;
75216;SDS011;63800;51.972;5.682;2023-02-28T08:35:40;2.42;;;1.70;;
75216;SDS011;63800;51.972;5.682;2023-02-28T08:38:05;2.40;;;2.00;;
75216;SDS011;63800;51.972;5.682;2023-02-28T08:40:31;4.65;;;2.15;;
75216;SDS011;63800;51.972;5.682;2023-02-28T08:42:56;4.22;;;2.00;;
75216;SDS011;63800;51.972;5.682;2023-02-28T08:45:23;2.17;;;1.95;;
75216;SDS011;63800;51.972;5.682;2023-02-28T08:47:48;2.22;;;2.00;;
75216;SDS011;63800;51.972;5.682;2023-02-28T08:50:13;3.53;;;2.17;;
75216;SDS011;63800;51.972;5.682;2023-02-28T08:52:41;2.75;;;2.15;;
75216;SDS011;63800;51.972;5.682;2023-02-28T08:55:08;2.55;;;2.30;;
75216;SDS011;63800;51.972;5.682;2023-02-28T08:57:34;2.85;;;2.30;;
75216;SDS011;63800;51.972;5.682;2023-02-28T09:00:00;3.67;;;2.40;;
75216;SDS011;63800;51.972;5.682;2023-02-28T09:02:29;4.47;;;2.17;;
75216;SDS011;63800;51.972;5.682;2023-02-28T09:04:55;2.38;;;2.10;;
75216;SDS011;63800;51.972;5.682;2023-02-28T09:07:20;2.92;;;2.20;;
75216;SDS011;63800;51.972;5.682;2023-02-28T09:09:46;3.80;;;2.13;;
75216;SDS011;63800;51.972;5.682;2023-02-28T09:12:24;2.67;;;2.13;;
75216;SDS011;63800;51.972;5.682;2023-02-28T09:14:50;3.60;;;2.30;;
75216;SDS011;63800;51.972;5.682;2023-02-28T09:17:16;3.35;;;2.78;;
75216;SDS011;63800;51.972;5.682;2023-02-28T09:19:42;1.88;;;1.75;;
75216;SDS011;63800;51.972;5.682;2023-02-28T09:22:08;1.98;;;1.88;;
75216;SDS011;63800;51.972;5.682;2023-02-28T09:24:35;1.95;;;1.67;;
75216;SDS011;63800;51.972;5.682;2023-02-28T09:27:02;2.25;;;1.73;;
75216;SDS011;63800;51.972;5.682;2023-02-28T09:29:27;2.30;;;2.10;;
75216;SDS011;63800;51.972;5.682;2023-02-28T09:31:53;1.88;;;1.67;;
75216;SDS011;63800;51.972;5.682;2023-02-28T09:34:18;2.22;;;1.80;;
75216;SDS011;63800;51.972;5.682;2023-02-28T09:36:44;2.30;;;2.10;;
75216;SDS011;63800;51.972;5.682;2023-02-28T09:39:10;2.80;;;1.83;;
75216;SDS011;63800;51.972;5.682;2023-02-28T09:41:38;2.85;;;2.20;;
75216;SDS011;63800;51.972;5.682;2023-02-28T09:44:13;2.20;;;2.00;;
75216;SDS011;63800;51.972;5.682;2023-02-28T09:47:03;2.70;;;2.00;;
75216;SDS011;63800;51.972;5.682;2023-02-28T09:49:37;2.13;;;1.75;;
75216;SDS011;63800;51.972;5.682;2023-02-28T09:52:09;2.72;;;2.25;;
75216;SDS011;63800;51.972;5.682;2023-02-28T09:54:38;2.20;;;2.00;;
75216;SDS011;63800;51.972;5.682;2023-02-28T10:03:29;3.80;;;2.30;;
75216;SDS011;63800;51.972;5.682;2023-02-28T10:06:06;2.47;;;1.90;;
75216;SDS011;63800;51.972;5.682;2023-02-28T10:08:52;2.10;;;1.85;;
75216;SDS011;63800;51.972;5.682;2023-02-28T10:11:26;2.30;;;2.10;;
75216;SDS011;63800;51.972;5.682;2023-02-28T10:16:28;1.92;;;1.80;;
75216;SDS011;63800;51.972;5.682;2023-02-28T10:19:21;3.20;;;2.10;;
75216;SDS011;63800;51.972;5.682;2023-02-28T10:24:26;3.88;;;2.08;;
75216;SDS011;63800;51.972;5.682;2023-02-28T10:27:32;3.00;;;1.80;;
75216;SDS011;63800;51.972;5.682;2023-02-28T10:29:59;2.65;;;1.80;;
75216;SDS011;63800;51.972;5.682;2023-02-28T10:32:26;3.47;;;2.05;;
75216;SDS011;63800;51.972;5.682;2023-02-28T10:34:57;3.53;;;2.38;;
75216;SDS011;63800;51.972;5.682;2023-02-28T10:37:26;2.33;;;1.90;;
75216;SDS011;63800;51.972;5.682;2023-02-28T10:39:52;3.92;;;2.30;;
75216;SDS011;63800;51.972;5.682;2023-02-28T10:44:55;3.08;;;2.35;;
75216;SDS011;63800;51.972;5.682;2023-02-28T10:47:31;2.38;;;2.17;;
75216;SDS011;63800;51.972;5.682;2023-02-28T10:49:59;2.17;;;1.98;;
75216;SDS011;63800;51.972;5.682;2023-02-28T10:52:37;2.50;;;2.30;;
75216;SDS011;63800;51.972;5.682;2023-02-28T10:55:14;3.03;;;2.40;;
75216;SDS011;63800;51.972;5.682;2023-02-28T10:57:44;2.75;;;2.50;;
75216;SDS011;63800;51.972;5.682;2023-02-28T11:02:46;2.67;;;2.20;;
75216;SDS011;63800;51.972;5.682;2023-02-28T11:05:30;2.92;;;2.22;;
75216;SDS011;63800;51.972;5.682;2023-02-28T11:08:10;2.10;;;2.00;;
75216;SDS011;63800;51.972;5.682;2023-02-28T11:10:39;3.55;;;2.03;;
75216;SDS011;63800;51.972;5.682;2023-02-28T11:13:14;1.88;;;1.75;;
75216;SDS011;63800;51.972;5.682;2023-02-28T11:15:45;2.67;;;2.05;;
75216;SDS011;63800;51.972;5.682;2023-02-28T11:18:24;2.20;;;1.85;;
75216;SDS011;63800;51.972;5.682;2023-02-28T11:21:16;2.42;;;2.05;;
75216;SDS011;63800;51.972;5.682;2023-02-28T11:23:49;4.55;;;2.38;;
75216;SDS011;63800;51.972;5.682;2023-02-28T11:26:16;2.33;;;2.13;;
75216;SDS011;63800;51.972;5.682;2023-02-28T11:29:05;4.35;;;2.45;;
75216;SDS011;63800;51.972;5.682;2023-02-28T11:31:36;2.60;;;2.03;;
75216;SDS011;63800;51.972;5.682;2023-02-28T11:34:01;3.28;;;2.22;;
75216;SDS011;63800;51.972;5.682;2023-02-28T11:36:45;3.45;;;2.25;;
75216;SDS011;63800;51.972;5.682;2023-02-28T11:39:20;2.20;;;1.90;;
75216;SDS011;63800;51.972;5.682;2023-02-28T11:50:03;2.88;;;2.10;;
75216;SDS011;63800;51.972;5.682;2023-02-28T12:00:34;2.70;;;1.90;;
75216;SDS011;63800;51.972;5.682;2023-02-28T12:05:45;3.35;;;2.30;;
75216;SDS011;63800;51.972;5.682;2023-02-28T12:08:22;2.40;;;2.20;;
75216;SDS011;63800;51.972;5.682;2023-02-28T12:26:44;2.55;;;2.35;;
75216;SDS011;63800;51.972;5.682;2023-02-28T12:29:13;2.38;;;2.17;;
75216;SDS011;63800;51.972;5.682;2023-02-28T12:31:49;2.17;;;2.00;;
75216;SDS011;63800;51.972;5.682;2023-02-28T12:34:21;2.50;;;2.25;;
75216;SDS011;63800;51.972;5.682;2023-02-28T12:36:52;3.20;;;2.58;;
75216;SDS011;63800;51.972;5.682;2023-02-28T12:39:23;3.90;;;2.75;;
75216;SDS011;63800;51.972;5.682;2023-02-28T12:41:56;2.55;;;2.17;;
75216;SDS011;63800;51.972;5.682;2023-02-28T12:47:05;2.08;;;1.90;;
75216;SDS011;63800;51.972;5.682;2023-02-28T12:49:41;2.60;;;2.30;;
75216;SDS011;63800;51.972;5.682;2023-02-28T12:52:13;2.60;;;2.40;;
75216;SDS011;63800;51.972;5.682;2023-02-28T12:54:45;2.88;;;2.58;;
75216;SDS011;63800;51.972;5.682;2023-02-28T12:57:38;3.03;;;2.72;;
75216;SDS011;63800;51.972;5.682;2023-02-28T13:00:10;2.67;;;2.40;;
75216;SDS011;63800;51.972;5.682;2023-02-28T13:11:25;2.38;;;2.17;;
75216;SDS011;63800;51.972;5.682;2023-02-28T13:14:06;3.50;;;2.60;;
75216;SDS011;63800;51.972;5.682;2023-02-28T13:16:48;2.50;;;2.30;;
75216;SDS011;63800;51.972;5.682;2023-02-28T13:19:25;3.10;;;2.60;;
75216;SDS011;63800;51.972;5.682;2023-02-28T13:21:53;3.42;;;2.20;;
75216;SDS011;63800;51.972;5.682;2023-02-28T13:24:36;3.10;;;2.90;;
75216;SDS011;63800;51.972;5.682;2023-02-28T13:29:38;2.67;;;2.47;;
75216;SDS011;63800;51.972;5.682;2023-02-28T13:34:46;2.92;;;2.65;;
75216;SDS011;63800;51.972;5.682;2023-02-28T13:39:53;4.28;;;2.70;;
75216;SDS011;63800;51.972;5.682;2023-02-28T13:47:39;2.80;;;2.50;;
75216;SDS011;63800;51.972;5.682;2023-02-28T13:55:53;2.08;;;1.98;;
75216;SDS011;63800;51.972;5.682;2023-02-28T14:04:02;3.83;;;2.45;;
75216;SDS011;63800;51.972;5.682;2023-02-28T14:06:46;2.40;;;2.20;;
75216;SDS011;63800;51.972;5.682;2023-02-28T14:09:17;2.97;;;2.45;;
75216;SDS011;63800;51.972;5.682;2023-02-28T14:11:52;3.00;;;2.75;;
75216;SDS011;63800;51.972;5.682;2023-02-28T14:17:02;2.58;;;2.38;;
75216;SDS011;63800;51.972;5.682;2023-02-28T14:19:30;2.55;;;2.35;;
75216;SDS011;63800;51.972;5.682;2023-02-28T14:27:32;2.70;;;2.50;;
75216;SDS011;63800;51.972;5.682;2023-02-28T14:38:45;2.70;;;2.45;;
75216;SDS011;63800;51.972;5.682;2023-02-28T14:41:39;2.90;;;2.58;;
75216;SDS011;63800;51.972;5.682;2023-02-28T14:44:39;3.63;;;2.60;;
75216;SDS011;63800;51.972;5.682;2023-02-28T14:47:02;3.40;;;2.75;;
75216;SDS011;63800;51.972;5.682;2023-02-28T14:49:41;2.60;;;2.35;;
75216;SDS011;63800;51.972;5.682;2023-02-28T14:52:17;3.63;;;2.60;;
75216;SDS011;63800;51.972;5.682;2023-02-28T14:55:05;2.90;;;2.60;;
75216;SDS011;63800;51.972;5.682;2023-02-28T14:57:41;3.33;;;2.50;;
75216;SDS011;63800;51.972;5.682;2023-02-28T15:02:45;2.88;;;2.40;;
75216;SDS011;63800;51.972;5.682;2023-02-28T15:07:45;2.67;;;2.45;;
75216;SDS011;63800;51.972;5.682;2023-02-28T15:10:25;2.88;;;2.60;;
75216;SDS011;63800;51.972;5.682;2023-02-28T15:12:56;3.38;;;2.65;;
75216;SDS011;63800;51.972;5.682;2023-02-28T15:15:44;2.70;;;2.50;;
75216;SDS011;63800;51.972;5.682;2023-02-28T15:21:13;2.55;;;2.17;;
75216;SDS011;63800;51.972;5.682;2023-02-28T15:23:42;3.15;;;2.13;;
75216;SDS011;63800;51.972;5.682;2023-02-28T15:26:15;2.30;;;2.10;;
75216;SDS011;63800;51.972;5.682;2023-02-28T15:28:44;2.42;;;2.15;;
75216;SDS011;63800;51.972;5.682;2023-02-28T15:31:27;2.63;;;2.17;;
75216;SDS011;63800;51.972;5.682;2023-02-28T15:33:55;3.00;;;2.70;;
75216;SDS011;63800;51.972;5.682;2023-02-28T15:36:24;2.72;;;2.20;;
75216;SDS011;63800;51.972;5.682;2023-02-28T15:38:53;2.13;;;1.90;;
75216;SDS011;63800;51.972;5.682;2023-02-28T15:41:24;3.47;;;2.35;;
75216;SDS011;63800;51.972;5.682;2023-02-28T15:49:43;2.45;;;2.25;;
75216;SDS011;63800;51.972;5.682;2023-02-28T15:52:13;3.72;;;2.28;;
75216;SDS011;63800;51.972;5.682;2023-02-28T15:54:41;3.88;;;2.40;;
75216;SDS011;63800;51.972;5.682;2023-02-28T15:57:11;3.88;;;2.20;;
75216;SDS011;63800;51.972;5.682;2023-02-28T15:59:44;3.58;;;2.22;;
75216;SDS011;63800;51.972;5.682;2023-02-28T16:02:21;2.95;;;2.35;;
75216;SDS011;63800;51.972;5.682;2023-02-28T16:05:40;3.40;;;2.20;;
75216;SDS011;63800;51.972;5.682;2023-02-28T16:08:14;3.83;;;2.10;;
75216;SDS011;63800;51.972;5.682;2023-02-28T16:10:40;3.28;;;1.95;;
75216;SDS011;63800;51.972;5.682;2023-02-28T16:13:05;2.55;;;2.15;;
75216;SDS011;63800;51.972;5.682;2023-02-28T16:15:35;2.75;;;2.30;;
75216;SDS011;63800;51.972;5.682;2023-02-28T16:18:07;2.50;;;2.30;;
75216;SDS011;63800;51.972;5.682;2023-02-28T16:20:35;2.10;;;2.00;;
75216;SDS011;63800;51.972;5.682;2023-02-28T16:23:00;2.42;;;2.08;;
75216;SDS011;63800;51.972;5.682;2023-02-28T16:25:40;2.97;;;2.05;;
75216;SDS011;63800;51.972;5.682;2023-02-28T16:28:19;3.00;;;2.60;;
75216;SDS011;63800;51.972;5.682;2023-02-28T16:31:05;3.13;;;2.53;;
75216;SDS011;63800;51.972;5.682;2023-02-28T16:33:32;2.28;;;1.83;;
75216;SDS011;63800;51.972;5.682;2023-02-28T16:35:58;3.05;;;2.40;;
75216;SDS011;63800;51.972;5.682;2023-02-28T16:38:24;2.53;;;2.30;;
75216;SDS011;63800;51.972;5.682;2023-02-28T16:40:51;2.65;;;2.30;;
75216;SDS011;63800;51.972;5.682;2023-02-28T16:43:18;2.45;;;2.08;;
75216;SDS011;63800;51.972;5.682;2023-02-28T16:45:47;2.78;;;2.30;;
75216;SDS011;63800;51.972;5.682;2023-02-28T16:48:14;2.15;;;1.90;;
75216;SDS011;63800;51.972;5.682;2023-02-28T16:50:41;2.67;;;2.33;;
75216;SDS011;63800;51.972;5.682;2023-02-28T16:53:08;3.35;;;2.90;;
75216;SDS011;63800;51.972;5.682;2023-02-28T16:55:34;2.67;;;2.45;;
75216;SDS011;63800;51.972;5.682;2023-02-28T16:58:00;2.50;;;2.30;;
75216;SDS011;63800;51.972;5.682;2023-02-28T17:00:27;3.40;;;2.20;;
75216;SDS011;63800;51.972;5.682;2023-02-28T17:02:54;2.80;;;2.50;;
75216;SDS011;63800;51.972;5.682;2023-02-28T17:05:21;2.58;;;2.30;;
75216;SDS011;63800;51.972;5.682;2023-02-28T17:07:47;2.50;;;2.30;;
75216;SDS011;63800;51.972;5.682;2023-02-28T17:10:23;2.50;;;2.30;;
75216;SDS011;63800;51.972;5.682;2023-02-28T17:12:50;4.05;;;2.78;;
75216;SDS011;63800;51.972;5.682;2023-02-28T17:15:16;2.20;;;2.05;;
75216;SDS011;63800;51.972;5.682;2023-02-28T17:17:43;2.70;;;2.22;;
75216;SDS011;63800;51.972;5.682;2023-02-28T17:20:18;3.53;;;2.50;;
75216;SDS011;63800;51.972;5.682;2023-02-28T17:22:48;2.53;;;2.28;;
75216;SDS011;63800;51.972;5.682;2023-02-28T17:27:47;2.83;;;2.40;;
75216;SDS011;63800;51.972;5.682;2023-02-28T17:30:17;2.67;;;2.40;;
75216;SDS011;63800;51.972;5.682;2023-02-28T17:32:48;3.60;;;2.40;;
75216;SDS011;63800;51.972;5.682;2023-02-28T17:35:13;2.60;;;2.25;;
75216;SDS011;63800;51.972;5.682;2023-02-28T17:37:39;4.30;;;2.60;;
75216;SDS011;63800;51.972;5.682;2023-02-28T17:40:05;2.28;;;2.08;;
75216;SDS011;63800;51.972;5.682;2023-02-28T17:42:31;2.80;;;2.20;;
75216;SDS011;63800;51.972;5.682;2023-02-28T17:44:56;3.63;;;2.40;;
75216;SDS011;63800;51.972;5.682;2023-02-28T17:47:22;3.33;;;2.20;;